Time;durP1;ratioP1;P1;durP2;ratioP2;P2;SDS_P1;SDS_P2;PMS_P1;PMS_P2;Temp;Humidity;BMP_temperature;BMP_pressure;BME280_temperature;BME280_humidity;BME280_pressure;Samples;Min_cycle;Max_cycle;Signal;HPM_P1;HPM_P2
2022/06/07 00:01:40;;;;;;;0.43;0.40;;;14.70;94.10;;;;;;4979582;28;21275;-66
2022/06/07 00:04:07;;;;;;;1.88;0.40;;;14.60;93.10;;;;;;4981257;28;20026;-68
2022/06/07 00:06:34;;;;;;;0.75;0.47;;;14.70;93.10;;;;;;4982682;28;20035;-63
2022/06/07 00:09:01;;;;;;;1.20;0.60;;;14.70;93.00;;;;;;4981046;28;20038;-64
2022/06/07 00:11:28;;;;;;;1.48;0.20;;;14.80;93.10;;;;;;4982024;28;20503;-66
2022/06/07 00:13:56;;;;;;;0.80;0.30;;;14.90;91.60;;;;;;4981758;28;20054;-64
2022/06/07 00:16:23;;;;;;;0.75;0.30;;;15.10;92.00;;;;;;4291930;28;10000801;-67
2022/06/07 00:18:50;;;;;;;0.30;0.22;;;15.30;91.30;;;;;;4977669;28;20037;-66
2022/06/07 00:21:17;;;;;;;0.30;0.30;;;15.30;91.70;;;;;;4978422;28;20109;-62
2022/06/07 00:23:44;;;;;;;0.90;0.40;;;15.40;92.20;;;;;;4977812;28;20065;-67
2022/06/07 00:26:12;;;;;;;0.82;0.43;;;15.70;92.10;;;;;;4976925;28;20061;-68
2022/06/07 00:28:39;;;;;;;1.00;0.47;;;15.70;91.10;;;;;;4977592;28;20455;-63
2022/06/07 00:31:06;;;;;;;0.20;0.20;;;15.80;90.70;;;;;;4978824;28;20070;-68
2022/06/07 00:33:33;;;;;;;1.00;0.70;;;16.00;90.30;;;;;;4959651;28;20118;-66
2022/06/07 00:36:00;;;;;;;0.63;0.40;;;15.80;89.30;;;;;;4978620;28;20054;-64
2022/06/07 00:38:27;;;;;;;1.58;0.60;;;15.70;90.40;;;;;;4978173;28;20030;-64
2022/06/07 00:40:55;;;;;;;1.08;0.45;;;15.80;90.50;;;;;;4975696;28;20031;-68
2022/06/07 00:43:25;;;;;;;0.80;0.50;;;16.00;89.00;;;;;;4977168;28;20033;-68
2022/06/07 00:45:53;;;;;;;0.57;0.30;;;16.00;87.60;;;;;;4978465;28;20032;-66
2022/06/07 00:48:21;;;;;;;0.20;0.15;;;16.00;87.70;;;;;;4977693;28;20030;-63
2022/06/07 00:51:02;;;;;;;0.22;0.20;;;16.10;88.20;;;;;;4978219;28;20033;-68
2022/06/07 00:53:32;;;;;;;1.65;0.38;;;15.90;86.80;;;;;;4976628;28;20026;-67
2022/06/07 00:56:01;;;;;;;1.77;0.10;;;15.90;87.40;;;;;;4976722;28;20030;-65
2022/06/07 00:58:30;;;;;;;0.95;0.20;;;16.10;87.90;;;;;;4978536;28;20392;-64
2022/06/07 01:00:59;;;;;;;2.10;0.30;;;16.20;86.90;;;;;;4977024;28;20117;-62
2022/06/07 01:03:27;;;;;;;0.57;0.40;;;16.20;86.30;;;;;;4975879;28;20097;-67
2022/06/07 01:10:43;;;;;;;2.05;0.52;;;16.20;85.70;;;;;;4978023;28;20034;-63
2022/06/07 01:11:27;;;;;;;3.50;0.77;;;16.10;86.40;;;;;;4976647;28;20180;-67
2022/06/07 01:13:54;;;;;;;8.27;0.63;;;16.30;85.70;;;;;;4977650;28;20022;-62
2022/06/07 01:16:21;;;;;;;0.52;0.32;;;16.30;85.10;;;;;;4977581;28;20022;-63
2022/06/07 01:18:48;;;;;;;3.75;0.50;;;16.30;85.30;;;;;;4977124;28;20065;-65
2022/06/07 01:21:29;;;;;;;4.45;0.50;;;16.40;85.50;;;;;;4977372;28;20018;-67
2022/06/07 01:23:56;;;;;;;1.17;0.30;;;16.50;84.80;;;;;;4976348;28;20860;-66
2022/06/07 01:26:23;;;;;;;3.65;0.20;;;16.50;83.60;;;;;;4977400;28;20035;-64
2022/06/07 01:28:50;;;;;;;0.28;0.20;;;16.50;84.90;;;;;;4976638;28;20101;-64
2022/06/07 01:31:17;;;;;;;0.10;0.10;;;16.80;84.50;;;;;;4976185;28;20030;-63
2022/06/07 01:33:45;;;;;;;3.95;0.45;;;16.80;82.40;;;;;;4977753;28;20399;-66
2022/06/07 01:36:15;;;;;;;4.45;0.60;;;16.80;83.30;;;;;;4977068;28;20541;-68
2022/06/07 01:38:45;;;;;;;2.65;0.40;;;16.90;83.10;;;;;;4976117;28;20030;-63
2022/06/07 01:43:59;;;;;;;0.13;0.10;;;17.10;80.60;;;;;;4976613;28;20053;-64
2022/06/07 01:46:26;;;;;;;0.70;0.25;;;16.70;82.10;;;;;;4977027;28;20089;-68
2022/06/07 01:48:53;;;;;;;2.13;0.68;;;16.60;81.10;;;;;;4977095;28;20031;-68
2022/06/07 01:51:21;;;;;;;4.28;1.10;;;16.70;80.70;;;;;;4974759;28;20121;-62
2022/06/07 01:53:48;;;;;;;4.55;1.17;;;16.80;80.40;;;;;;4974237;28;20036;-66
2022/06/07 01:56:17;;;;;;;0.95;0.50;;;17.00;80.80;;;;;;4975438;28;21239;-63
2022/06/07 01:58:45;;;;;;;0.73;0.30;;;17.00;80.90;;;;;;4970481;28;20034;-65
2022/06/07 02:01:13;;;;;;;0.20;0.20;;;17.10;79.70;;;;;;4975287;28;20038;-66
2022/06/07 02:03:41;;;;;;;0.20;0.20;;;17.10;77.70;;;;;;4974503;28;20109;-62
2022/06/07 02:06:11;;;;;;;0.22;0.20;;;17.00;79.40;;;;;;4975134;28;20050;-66
2022/06/07 02:08:40;;;;;;;2.45;0.38;;;16.80;79.40;;;;;;4973340;28;20030;-68
2022/06/07 02:11:19;;;;;;;0.20;0.20;;;16.70;79.30;;;;;;4957446;28;20637;-66
2022/06/07 02:13:47;;;;;;;0.38;0.25;;;16.60;80.00;;;;;;4974806;28;20072;-63
2022/06/07 02:16:15;;;;;;;0.10;0.10;;;16.70;79.60;;;;;;4975371;28;20173;-63
2022/06/07 02:18:43;;;;;;;0.22;0.22;;;16.90;79.60;;;;;;4974037;28;20483;-68
2022/06/07 02:21:10;;;;;;;6.53;0.82;;;17.00;81.00;;;;;;4974798;28;20102;-67
2022/06/07 02:23:38;;;;;;;1.73;0.75;;;17.30;79.40;;;;;;4976148;28;20110;-63
2022/06/07 02:26:37;;;;;;;0.65;0.50;;;17.50;79.00;;;;;;4972786;28;20033;-63
2022/06/07 02:29:19;;;;;;;1.00;0.28;;;17.60;77.70;;;;;;4974376;28;20089;-63
2022/06/07 02:32:15;;;;;;;1.17;0.38;;;17.40;78.70;;;;;;4974086;28;20031;-63
2022/06/07 02:34:45;;;;;;;0.75;0.20;;;17.70;79.40;;;;;;4964953;28;20038;-64
2022/06/07 02:37:13;;;;;;;2.35;0.45;;;18.00;77.50;;;;;;4976752;28;20529;-63
2022/06/07 02:39:41;;;;;;;1.10;0.40;;;18.10;74.60;;;;;;4972261;28;20486;-65
2022/06/07 02:42:10;;;;;;;11.40;1.67;;;18.20;77.30;;;;;;4975352;28;20542;-65
2022/06/07 02:44:38;;;;;;;6.50;1.13;;;17.90;75.20;;;;;;4974252;28;20035;-64
2022/06/07 02:47:05;;;;;;;4.10;0.60;;;17.70;75.70;;;;;;4958713;28;20022;-67
2022/06/07 02:49:32;;;;;;;3.28;0.50;;;17.60;74.10;;;;;;4975528;28;20023;-67
2022/06/07 02:51:59;;;;;;;2.28;0.47;;;17.50;75.10;;;;;;4974238;28;20025;-64
2022/06/07 02:54:26;;;;;;;4.75;0.50;;;17.20;74.10;;;;;;4975680;28;20046;-65
2022/06/07 02:56:55;;;;;;;10.40;1.33;;;17.00;75.80;;;;;;4973754;28;20077;-68
2022/06/07 02:59:22;;;;;;;4.78;1.10;;;17.20;76.80;;;;;;4973017;28;20029;-65
2022/06/07 03:01:50;;;;;;;2.92;1.10;;;17.20;75.60;;;;;;4974709;28;20078;-67
2022/06/07 03:04:17;;;;;;;0.60;0.50;;;17.10;74.40;;;;;;4972507;28;20400;-65
2022/06/07 03:06:44;;;;;;;0.20;0.20;;;17.20;75.60;;;;;;4974103;28;20054;-64
2022/06/07 03:09:11;;;;;;;0.20;0.20;;;17.20;74.60;;;;;;4973594;28;20030;-65
2022/06/07 03:11:38;;;;;;;1.40;0.20;;;17.10;75.50;;;;;;4976691;28;20018;-66
2022/06/07 03:14:05;;;;;;;2.30;0.52;;;17.10;75.30;;;;;;4973803;28;20049;-69
2022/06/07 03:16:33;;;;;;;1.75;0.17;;;16.90;74.40;;;;;;4957405;28;20129;-66
2022/06/07 03:19:00;;;;;;;1.85;0.60;;;16.70;73.80;;;;;;4973357;28;20052;-65
2022/06/07 03:21:28;;;;;;;0.77;0.30;;;16.80;74.10;;;;;;4975887;28;20035;-66
2022/06/07 03:23:56;;;;;;;1.00;0.10;;;17.10;75.10;;;;;;4972744;28;20027;-66
2022/06/07 03:26:23;;;;;;;2.80;0.50;;;17.00;73.70;;;;;;4973933;28;20026;-66
2022/06/07 03:28:50;;;;;;;0.28;0.22;;;16.90;74.30;;;;;;4972247;28;20038;-64
2022/06/07 03:31:19;;;;;;;0.30;0.28;;;17.10;73.70;;;;;;4975364;28;20406;-66
2022/06/07 03:33:47;;;;;;;1.80;0.30;;;17.10;73.00;;;;;;4972332;28;20027;-67
2022/06/07 03:36:32;;;;;;;0.85;0.30;;;16.90;73.80;;;;;;4973129;28;20022;-69
2022/06/07 03:39:03;;;;;;;0.75;0.38;;;17.00;73.90;;;;;;4973568;28;20023;-67
2022/06/07 03:41:31;;;;;;;2.63;0.38;;;17.00;74.10;;;;;;4973450;28;20119;-64
2022/06/07 03:43:58;;;;;;;0.65;0.20;;;17.10;73.20;;;;;;4971307;28;20566;-62
2022/06/07 03:46:28;;;;;;;0.50;0.20;;;17.00;73.50;;;;;;4973975;28;20031;-66
2022/06/07 03:48:56;;;;;;;1.00;0.55;;;17.10;72.60;;;;;;4972271;28;20468;-62
2022/06/07 03:51:25;;;;;;;0.30;0.22;;;17.00;73.70;;;;;;4971706;28;20035;-62
2022/06/07 03:53:53;;;;;;;0.15;0.15;;;17.00;74.50;;;;;;4972415;28;20023;-66
2022/06/07 03:56:21;;;;;;;1.15;0.25;;;17.10;73.50;;;;;;4972550;28;20077;-69
2022/06/07 03:58:49;;;;;;;0.47;0.20;;;17.20;74.00;;;;;;4972646;28;20109;-63
2022/06/07 04:01:18;;;;;;;0.63;0.22;;;17.20;74.10;;;;;;4972976;28;20495;-62
2022/06/07 04:03:47;;;;;;;0.80;0.43;;;17.30;74.50;;;;;;4971336;28;20050;-67
2022/06/07 04:06:18;;;;;;;1.05;0.35;;;17.30;73.10;;;;;;4972299;28;20035;-69
2022/06/07 04:08:45;;;;;;;0.65;0.30;;;17.30;72.60;;;;;;4972371;28;20550;-68
2022/06/07 04:11:16;;;;;;;1.10;0.38;;;17.10;72.80;;;;;;4972558;28;20065;-62
2022/06/07 04:13:43;;;;;;;2.28;0.30;;;17.00;73.70;;;;;;4973117;28;20078;-63
2022/06/07 04:16:22;;;;;;;1.00;0.30;;;16.90;75.10;;;;;;4971168;28;20035;-61
2022/06/07 04:18:49;;;;;;;0.40;0.30;;;17.10;75.00;;;;;;4972733;28;20042;-66
2022/06/07 04:21:17;;;;;;;0.95;0.73;;;17.00;75.80;;;;;;4974587;28;20038;-68
2022/06/07 04:23:45;;;;;;;1.17;0.40;;;17.10;76.00;;;;;;4974482;28;20034;-62
2022/06/07 04:26:18;;;;;;;1.85;0.75;;;17.40;76.10;;;;;;4973842;28;20787;-60
2022/06/07 04:28:45;;;;;;;1.02;0.35;;;17.50;76.60;;;;;;4956746;28;20041;-62
2022/06/07 04:31:18;;;;;;;0.98;0.40;;;17.60;74.60;;;;;;4973355;28;20184;-62
2022/06/07 04:33:45;;;;;;;;;;;17.60;73.60;;;;;;4975880;28;20029;-65
2022/06/07 04:36:15;;;;;;;0.30;0.20;;;17.60;73.80;;;;;;4972862;28;20701;-61
2022/06/07 04:38:43;;;;;;;1.30;0.30;;;17.30;74.30;;;;;;4976686;28;20029;-66
2022/06/07 04:41:12;;;;;;;0.55;0.40;;;17.30;75.00;;;;;;4977414;28;20034;-64
2022/06/07 04:43:39;;;;;;;1.55;0.45;;;17.20;75.20;;;;;;4977872;28;20042;-63
2022/06/07 04:46:09;;;;;;;0.45;0.45;;;17.20;74.60;;;;;;4976800;28;20081;-65
2022/06/07 04:48:38;;;;;;;0.93;0.40;;;17.00;76.00;;;;;;4978413;28;20125;-63
2022/06/07 04:51:08;;;;;;;0.30;0.28;;;16.70;75.10;;;;;;4975743;28;20029;-65
2022/06/07 04:53:35;;;;;;;0.20;0.20;;;16.90;76.10;;;;;;4977223;28;20019;-60
2022/06/07 04:56:15;;;;;;;1.02;0.30;;;16.70;75.20;;;;;;4976783;28;20050;-62
2022/06/07 04:58:42;;;;;;;1.30;0.40;;;16.00;75.30;;;;;;4977868;28;20592;-63
2022/06/07 05:01:25;;;;;;;1.40;0.43;;;15.70;77.00;;;;;;4977709;28;20526;-65
2022/06/07 05:03:53;;;;;;;0.83;0.50;;;15.50;77.30;;;;;;4977343;28;20479;-67
2022/06/07 05:06:26;;;;;;;0.30;0.20;;;15.40;78.50;;;;;;4974926;28;20022;-63
2022/06/07 05:08:57;;;;;;;1.38;0.50;;;15.80;78.50;;;;;;4975495;28;20031;-62
2022/06/07 05:11:24;;;;;;;2.15;0.52;;;16.00;77.40;;;;;;4975551;28;20030;-69
2022/06/07 05:13:55;;;;;;;0.30;0.30;;;16.20;77.80;;;;;;4976280;28;20029;-65
2022/06/07 05:16:23;;;;;;;0.68;0.40;;;16.30;77.70;;;;;;4974064;28;20035;-65
2022/06/07 05:18:52;;;;;;;1.02;0.30;;;16.60;77.30;;;;;;4974362;28;20029;-69
2022/06/07 05:21:19;;;;;;;0.90;0.50;;;16.50;77.80;;;;;;4975585;28;20157;-65
2022/06/07 05:23:47;;;;;;;1.77;0.93;;;16.50;75.00;;;;;;4976768;28;20657;-65
2022/06/07 05:26:38;;;;;;;1.20;0.55;;;16.30;74.90;;;;;;4972356;28;20054;-63
2022/06/07 05:29:06;;;;;;;0.17;0.17;;;16.30;75.70;;;;;;4937342;23;20789;-67
2022/06/07 05:31:33;;;;;;;0.20;0.20;;;16.10;75.80;;;;;;5004827;28;20034;-69
2022/06/07 05:34:03;;;;;;;1.10;0.60;;;16.20;75.60;;;;;;4985999;28;20509;-61
2022/06/07 05:36:30;;;;;;;0.98;0.47;;;16.40;75.80;;;;;;5003989;28;20021;-65
2022/06/07 05:38:58;;;;;;;0.77;0.40;;;16.60;76.00;;;;;;5004172;28;20022;-62
2022/06/07 05:41:32;;;;;;;3.20;1.02;;;16.60;76.00;;;;;;5006152;28;20111;-66
2022/06/07 05:44:01;;;;;;;2.97;1.50;;;16.30;75.80;;;;;;5005981;28;20486;-72
2022/06/07 05:46:28;;;;;;;3.13;1.33;;;16.20;77.10;;;;;;5005858;28;20549;-62
2022/06/07 05:48:55;;;;;;;2.28;0.80;;;15.90;77.70;;;;;;5005662;28;20022;-61
2022/06/07 05:51:22;;;;;;;0.32;0.32;;;15.50;77.80;;;;;;5005284;28;20030;-69
2022/06/07 05:53:53;;;;;;;0.47;0.32;;;15.20;79.20;;;;;;5004843;28;20360;-62
2022/06/07 05:56:21;;;;;;;1.35;0.40;;;15.10;79.30;;;;;;4987418;28;20037;-61
2022/06/07 05:58:49;;;;;;;0.25;0.20;;;15.00;80.10;;;;;;5002873;28;20045;-61
2022/06/07 06:01:17;;;;;;;0.47;0.30;;;14.90;79.40;;;;;;4996111;28;20089;-71
2022/06/07 06:03:44;;;;;;;1.45;0.45;;;14.70;79.40;;;;;;4986251;28;20462;-64
2022/06/07 06:06:12;;;;;;;3.53;0.40;;;14.60;79.90;;;;;;4986880;28;20482;-63
2022/06/07 06:11:28;;;;;;;0.82;0.40;;;14.50;79.40;;;;;;4985984;28;20589;-72
2022/06/07 06:13:55;;;;;;;1.48;0.30;;;14.40;80.00;;;;;;4986751;28;20029;-64
2022/06/07 06:16:23;;;;;;;0.43;0.28;;;14.50;80.50;;;;;;4986002;28;20030;-65
2022/06/07 06:18:52;;;;;;;0.75;0.43;;;14.40;81.00;;;;;;4987516;28;20610;-70
2022/06/07 06:21:22;;;;;;;0.40;0.30;;;14.20;80.50;;;;;;4987306;28;20038;-69
2022/06/07 06:23:49;;;;;;;2.38;0.50;;;14.10;82.30;;;;;;4986725;28;20037;-64
2022/06/07 06:26:19;;;;;;;0.20;0.20;;;14.00;82.50;;;;;;4986502;28;20022;-67
2022/06/07 06:28:46;;;;;;;2.08;0.40;;;14.00;82.70;;;;;;4985926;28;20117;-63
2022/06/07 06:31:15;;;;;;;1.92;0.30;;;14.00;83.00;;;;;;4984872;28;20051;-61
2022/06/07 06:33:50;;;;;;;0.60;0.25;;;13.90;83.20;;;;;;4982552;28;20050;-65
2022/06/07 06:36:23;;;;;;;2.83;0.43;;;13.80;83.00;;;;;;4982152;28;20085;-66
2022/06/07 06:38:49;;;;;;;;;;;13.70;83.80;;;;;;4982459;28;20038;-63
2022/06/07 06:41:20;;;;;;;0.75;0.52;;;13.60;84.00;;;;;;4982718;28;19910;-68
2022/06/07 06:43:48;;;;;;;1.95;0.73;;;13.40;84.20;;;;;;4982587;28;20030;-68
2022/06/07 06:46:19;;;;;;;3.92;0.50;;;13.40;85.00;;;;;;4982571;28;20037;-66
2022/06/07 06:48:46;;;;;;;1.75;0.50;;;13.30;85.30;;;;;;4982149;28;20054;-68
2022/06/07 06:51:23;;;;;;;1.15;0.50;;;13.20;86.70;;;;;;4982109;28;20030;-67
2022/06/07 06:53:50;;;;;;;0.50;0.47;;;13.10;85.90;;;;;;4983493;28;20066;-68
2022/06/07 06:56:21;;;;;;;0.40;0.40;;;13.00;86.40;;;;;;4983427;28;20026;-68
2022/06/07 06:58:50;;;;;;;1.95;0.60;;;13.00;86.80;;;;;;4983182;28;20403;-68
2022/06/07 07:01:22;;;;;;;0.57;0.40;;;12.80;87.50;;;;;;4982199;28;20038;-69
2022/06/07 07:03:50;;;;;;;1.23;0.70;;;12.70;87.60;;;;;;4982643;28;20038;-69
2022/06/07 07:06:17;;;;;;;1.83;0.55;;;12.70;88.40;;;;;;4983097;28;20095;-66
2022/06/07 07:08:46;;;;;;;0.50;0.30;;;12.80;88.10;;;;;;4983424;28;20739;-66
2022/06/07 07:11:19;;;;;;;1.13;0.40;;;12.80;87.80;;;;;;4983085;28;20403;-68
2022/06/07 07:13:47;;;;;;;0.65;0.40;;;12.70;89.40;;;;;;4983402;28;20735;-68
2022/06/07 07:16:18;;;;;;;1.98;0.40;;;12.70;89.20;;;;;;4982871;28;20033;-66
2022/06/07 07:18:46;;;;;;;1.05;0.50;;;12.80;87.60;;;;;;4983039;28;20022;-67
2022/06/07 07:21:17;;;;;;;0.60;0.50;;;12.70;88.90;;;;;;4980709;28;20934;-68
2022/06/07 07:23:45;;;;;;;2.45;1.20;;;12.60;90.30;;;;;;4982584;28;20034;-68
2022/06/07 07:26:19;;;;;;;3.47;2.03;;;12.50;90.10;;;;;;4982132;28;20490;-67
2022/06/07 07:28:49;;;;;;;3.60;2.30;;;12.40;90.50;;;;;;4980957;28;20030;-66
2022/06/07 07:31:31;;;;;;;2.05;0.82;;;12.40;90.80;;;;;;4980321;28;20034;-67
2022/06/07 07:34:02;;;;;;;1.58;0.65;;;12.30;91.10;;;;;;4980482;28;20085;-67
2022/06/07 07:36:30;;;;;;;1.92;0.90;;;12.60;90.40;;;;;;4980825;28;20027;-66
2022/06/07 07:38:58;;;;;;;3.65;1.15;;;12.50;90.70;;;;;;4979488;28;20415;-69
2022/06/07 07:41:30;;;;;;;1.70;1.00;;;12.40;91.10;;;;;;4978591;28;20443;-66
2022/06/07 07:43:59;;;;;;;4.18;1.42;;;12.40;91.50;;;;;;4979470;28;20033;-68
2022/06/07 07:46:35;;;;;;;2.22;1.13;;;12.50;91.10;;;;;;4980579;28;20117;-67
2022/06/07 07:49:03;;;;;;;3.92;1.50;;;12.60;90.70;;;;;;4977497;28;20030;-66
2022/06/07 07:51:35;;;;;;;5.05;1.10;;;12.80;90.40;;;;;;4976674;28;20041;-67
2022/06/07 07:54:03;;;;;;;2.95;1.25;;;12.90;90.40;;;;;;4978050;28;20026;-69
2022/06/07 07:56:31;;;;;;;2.47;0.80;;;12.90;90.20;;;;;;4981329;28;20240;-66
2022/06/07 07:59:02;;;;;;;0.50;0.50;;;12.90;90.30;;;;;;4979594;28;20022;-69
2022/06/07 08:01:30;;;;;;;1.70;0.50;;;12.90;90.80;;;;;;4980364;28;20537;-69
2022/06/07 08:03:59;;;;;;;7.55;0.55;;;12.80;91.80;;;;;;4981832;28;20065;-70
2022/06/07 08:06:28;;;;;;;5.55;0.50;;;12.70;92.50;;;;;;4981231;28;20093;-64
2022/06/07 08:08:58;;;;;;;1.17;0.32;;;12.40;93.30;;;;;;4981202;28;20023;-68
2022/06/07 08:11:32;;;;;;;0.47;0.30;;;12.20;93.90;;;;;;4981148;28;20054;-67
2022/06/07 08:14:00;;;;;;;0.40;0.30;;;12.10;94.60;;;;;;4986440;28;20077;-65
2022/06/07 08:16:27;;;;;;;0.40;0.30;;;11.90;95.40;;;;;;4983654;28;20026;-68
2022/06/07 08:18:55;;;;;;;0.20;0.20;;;11.80;95.60;;;;;;4984337;28;20685;-70
2022/06/07 08:21:26;;;;;;;0.93;0.40;;;11.70;96.10;;;;;;4983451;28;20026;-70
2022/06/07 08:23:55;;;;;;;0.55;0.40;;;11.60;96.40;;;;;;4984751;28;20088;-68
2022/06/07 08:26:24;;;;;;;2.10;0.93;;;11.60;96.90;;;;;;4984359;28;20022;-70
2022/06/07 08:28:51;;;;;;;0.68;0.50;;;11.50;97.30;;;;;;4984624;28;20052;-68
2022/06/07 08:31:21;;;;;;;2.25;1.67;;;11.40;97.70;;;;;;4985002;28;20022;-69
2022/06/07 08:39:20;;;;;;;3.45;2.17;;;11.20;98.90;;;;;;4985862;28;20038;-64
2022/06/07 08:42:13;;;;;;;2.88;1.23;;;11.10;99.50;;;;;;4985427;28;20037;-68
2022/06/07 08:45:04;;;;;;;2.70;1.10;;;11.00;99.90;;;;;;4985415;28;20046;-70
2022/06/07 08:47:59;;;;;;;0.88;0.60;;;10.90;99.90;;;;;;4985523;28;20117;-68
2022/06/07 08:50:48;;;;;;;4.07;1.05;;;10.80;99.90;;;;;;4984221;28;20502;-77
2022/06/07 08:53:34;;;;;;;1.52;1.05;;;10.60;99.90;;;;;;4914588;29;20043;-69
2022/06/07 08:56:09;;;;;;;3.35;1.40;;;10.50;99.90;;;;;;4913873;29;21476;-65
2022/06/07 08:58:42;;;;;;;1.73;1.20;;;10.40;99.90;;;;;;4914458;29;20576;-71
2022/06/07 09:01:44;;;;;;;0.80;0.75;;;10.40;99.90;;;;;;4914851;29;20033;-70
2022/06/07 09:04:40;;;;;;;1.45;0.80;;;10.40;99.90;;;;;;4911933;29;20039;-70
2022/06/07 09:07:17;;;;;;;2.53;1.05;;;10.40;99.90;;;;;;4854642;29;20047;-67
2022/06/07 09:12:39;;;;;;;1.40;0.80;;;10.20;99.90;;;;;;4856441;29;20238;-69
2022/06/07 09:15:13;;;;;;;0.95;0.60;;;10.10;99.90;;;;;;4855975;29;20087;-67
2022/06/07 09:17:42;;;;;;;2.30;1.00;;;10.10;99.90;;;;;;4855111;29;20042;-69
2022/06/07 09:20:18;;;;;;;1.98;1.08;;;10.00;99.90;;;;;;4856001;29;20037;-68
2022/06/07 09:22:54;;;;;;;2.50;1.23;;;10.00;99.90;;;;;;4854898;29;20041;-67
2022/06/07 09:25:49;;;;;;;1.58;1.10;;;10.00;99.90;;;;;;4857597;29;20052;-68
2022/06/07 09:28:29;;;;;;;1.85;1.40;;;9.90;99.90;;;;;;4857429;29;20124;-65
2022/06/07 09:31:18;;;;;;;0.50;0.50;;;9.90;99.90;;;;;;4900939;29;20653;-67
2022/06/07 09:33:57;;;;;;;0.82;0.52;;;9.90;99.90;;;;;;4921383;29;20028;-66
2022/06/07 09:36:39;;;;;;;1.17;0.60;;;10.00;99.90;;;;;;4921723;29;20040;-69
2022/06/07 09:39:16;;;;;;;1.35;0.88;;;10.00;99.90;;;;;;4920598;29;20028;-66
2022/06/07 09:41:52;;;;;;;1.33;0.75;;;9.90;99.90;;;;;;4921602;29;20040;-68
2022/06/07 09:44:34;;;;;;;1.52;0.60;;;9.90;99.90;;;;;;4971118;28;20452;-76
2022/06/07 09:47:20;;;;;;;1.00;0.80;;;9.90;99.90;;;;;;4981321;28;20030;-76
2022/06/07 09:50:12;;;;;;;3.35;1.73;;;9.90;99.90;;;;;;4982871;28;20169;-65
2022/06/07 09:52:46;;;;;;;1.23;0.70;;;9.90;99.90;;;;;;4981424;28;20536;-68
2022/06/07 09:55:49;;;;;;;1.33;0.70;;;9.90;99.90;;;;;;4981418;28;20371;-66
2022/06/07 09:58:35;;;;;;;1.42;0.98;;;9.90;99.90;;;;;;4918852;29;20040;-64
2022/06/07 10:01:25;;;;;;;0.70;0.70;;;9.90;99.90;;;;;;4924279;29;20671;-64
2022/06/07 10:03:55;;;;;;;0.40;0.40;;;9.80;99.90;;;;;;4919467;29;20044;-64
2022/06/07 10:06:42;;;;;;;0.85;0.60;;;9.80;99.90;;;;;;4921740;29;20420;-65
2022/06/07 10:09:39;;;;;;;1.02;0.60;;;9.70;99.90;;;;;;4923437;29;20105;-65
2022/06/07 10:12:26;;;;;;;0.88;0.52;;;9.70;99.90;;;;;;4923843;29;20067;-65
2022/06/07 10:15:01;;;;;;;1.33;0.73;;;9.40;99.90;;;;;;4909111;29;20046;-64
2022/06/07 10:17:44;;;;;;;1.00;0.90;;;9.20;99.90;;;;;;4924653;29;20075;-65
2022/06/07 10:20:44;;;;;;;1.23;0.70;;;9.10;99.90;;;;;;4923478;29;20036;-64
2022/06/07 10:23:29;;;;;;;0.77;0.70;;;8.90;99.90;;;;;;4923417;29;20127;-63
2022/06/07 10:26:20;;;;;;;2.00;0.75;;;8.90;99.90;;;;;;4905637;29;20171;-65
2022/06/07 10:29:07;;;;;;;1.92;1.00;;;8.90;99.90;;;;;;4922512;29;20039;-63
2022/06/07 10:32:00;;;;;;;1.10;0.80;;;9.00;99.90;;;;;;4885639;29;20517;-63
2022/06/07 10:34:41;;;;;;;1.42;0.82;;;9.00;99.90;;;;;;4884858;29;20040;-64
2022/06/07 10:37:27;;;;;;;1.90;1.00;;;8.90;99.90;;;;;;4924520;29;20689;-64
2022/06/07 10:40:16;;;;;;;1.73;1.13;;;8.90;99.90;;;;;;4922699;29;20031;-66
2022/06/07 10:42:52;;;;;;;1.58;0.95;;;8.70;99.90;;;;;;4923514;29;20036;-66
2022/06/07 10:45:27;;;;;;;1.48;1.27;;;8.60;99.90;;;;;;4923527;29;20295;-66
2022/06/07 10:47:58;;;;;;;1.13;0.90;;;8.70;99.90;;;;;;4924637;29;20060;-66
2022/06/07 10:50:57;;;;;;;1.73;1.08;;;8.80;99.90;;;;;;4925072;29;20086;-64
2022/06/07 10:53:42;;;;;;;0.68;0.68;;;8.90;99.90;;;;;;4901679;29;20087;-66
2022/06/07 10:56:18;;;;;;;0.85;0.70;;;9.00;99.90;;;;;;4902125;29;20080;-65
2022/06/07 10:58:50;;;;;;;1.67;0.57;;;9.10;99.90;;;;;;4895033;29;20120;-63
2022/06/07 11:01:23;;;;;;;1.67;0.93;;;9.20;99.90;;;;;;4888480;29;20037;-66
2022/06/07 11:09:19;;;;;;;3.15;2.08;;;9.10;99.90;;;;;;4896700;29;20135;-63
2022/06/07 11:09:48;;;;;;;6.55;4.57;;;9.00;99.90;;;;;;4906106;29;20051;-66
2022/06/07 11:12:19;;;;;;;3.80;2.25;;;8.90;99.90;;;;;;4913406;29;20474;-64
2022/06/07 11:14:52;;;;;;;3.25;2.45;;;8.80;99.90;;;;;;4916571;29;21073;-65
2022/06/07 11:17:29;;;;;;;;;;;8.70;99.90;;;;;;4912378;29;20655;-67
2022/06/07 11:20:00;;;;;;;1.42;1.10;;;8.50;99.90;;;;;;4911481;29;19941;-63
2022/06/07 11:22:37;;;;;;;1.50;1.10;;;8.30;99.90;;;;;;4911382;29;20115;-65
2022/06/07 11:25:36;;;;;;;2.92;1.60;;;8.20;99.90;;;;;;4907395;29;20409;-65
2022/06/07 11:28:15;;;;;;;3.20;1.92;;;8.00;99.90;;;;;;4851878;29;20223;-63
2022/06/07 11:30:48;;;;;;;2.88;1.40;;;7.80;99.90;;;;;;4902058;29;20487;-63
2022/06/07 11:33:50;;;;;;;2.33;1.50;;;7.60;99.90;;;;;;4913873;29;20860;-66
2022/06/07 11:36:23;;;;;;;1.70;1.38;;;7.50;99.90;;;;;;4912851;29;20028;-65
2022/06/07 11:38:56;;;;;;;2.08;1.30;;;7.40;99.90;;;;;;4902033;29;20086;-64
2022/06/07 11:41:37;;;;;;;;;;;7.40;99.90;;;;;;4905911;29;20793;-68
2022/06/07 11:44:10;;;;;;;1.70;1.20;;;7.30;99.90;;;;;;4905665;29;19915;-65
2022/06/07 11:46:57;;;;;;;;;;;7.30;99.90;;;;;;4905939;29;20467;-70
2022/06/07 11:49:24;;;;;;;2.92;1.48;;;7.30;99.90;;;;;;4905361;29;20403;-65
2022/06/07 11:52:12;;;;;;;2.35;1.35;;;7.20;99.90;;;;;;4904668;29;20032;-65
2022/06/07 11:54:53;;;;;;;2.70;1.90;;;7.00;99.90;;;;;;4896156;29;20076;-63
2022/06/07 11:57:40;;;;;;;2.35;1.40;;;7.00;99.90;;;;;;4897681;29;20040;-68
2022/06/07 12:00:19;;;;;;;2.53;1.30;;;7.10;99.90;;;;;;4904422;29;20505;-69
2022/06/07 12:03:00;;;;;;;1.80;1.40;;;7.10;99.90;;;;;;4897899;29;20036;-62
2022/06/07 12:05:43;;;;;;;2.45;1.23;;;7.20;99.90;;;;;;4983895;28;20062;-64
2022/06/07 12:08:22;;;;;;;2.20;1.33;;;7.40;99.90;;;;;;4989552;28;20609;-62
2022/06/07 12:11:01;;;;;;;2.83;1.52;;;7.20;99.90;;;;;;4988699;28;20026;-62
2022/06/07 12:13:49;;;;;;;2.42;1.73;;;6.90;99.90;;;;;;4985823;28;20038;-65
2022/06/07 12:16:37;;;;;;;2.00;1.40;;;6.80;99.90;;;;;;4990044;28;20463;-63
2022/06/07 12:19:20;;;;;;;2.10;1.40;;;6.80;99.90;;;;;;4992025;28;20141;-66
2022/06/07 12:21:53;;;;;;;2.72;1.42;;;6.70;99.90;;;;;;4644140;28;9999824;-68
2022/06/07 12:24:21;;;;;;;;;;;6.60;99.90;;;;;;4988691;28;20026;-66
2022/06/07 12:26:48;;;;;;;1.85;1.30;;;6.70;99.90;;;;;;4990643;28;20266;-68
2022/06/07 12:29:26;;;;;;;2.10;1.38;;;6.80;99.90;;;;;;4985805;28;20062;-65
2022/06/07 12:32:06;;;;;;;3.30;1.40;;;6.70;99.90;;;;;;4991006;28;20026;-64
2022/06/07 12:34:37;;;;;;;1.65;1.08;;;6.60;99.90;;;;;;4993263;28;20050;-65
2022/06/07 12:37:24;;;;;;;1.35;1.10;;;6.50;99.90;;;;;;4989576;28;20022;-64
2022/06/07 12:39:59;;;;;;;2.55;1.20;;;6.60;99.90;;;;;;4992270;28;20036;-65
2022/06/07 12:42:32;;;;;;;1.38;1.00;;;6.60;99.90;;;;;;4989706;28;20453;-70
2022/06/07 12:45:14;;;;;;;2.78;1.35;;;6.70;99.90;;;;;;4990455;28;20046;-70
2022/06/07 12:47:42;;;;;;;2.38;1.42;;;6.90;99.90;;;;;;4986911;28;20767;-65
2022/06/07 12:50:33;;;;;;;1.80;1.17;;;6.90;99.90;;;;;;4994475;28;20030;-70
2022/06/07 12:53:02;;;;;;;2.92;1.40;;;6.90;99.90;;;;;;4991481;28;20026;-67
2022/06/07 12:55:34;;;;;;;2.40;0.95;;;6.90;99.90;;;;;;4995345;28;20050;-70
2022/06/07 12:58:07;;;;;;;4.22;0.90;;;6.90;99.90;;;;;;4983221;28;20027;-68
2022/06/07 13:00:45;;;;;;;1.85;1.10;;;6.90;99.90;;;;;;4993914;28;20117;-69
2022/06/07 13:03:36;;;;;;;3.83;1.77;;;7.10;99.90;;;;;;4995546;28;20088;-69
2022/06/07 13:06:08;;;;;;;2.60;0.73;;;7.40;99.90;;;;;;4996280;28;20037;-69
2022/06/07 13:08:41;;;;;;;1.88;0.88;;;7.70;99.90;;;;;;4995856;28;20579;-67
2022/06/07 13:11:15;;;;;;;1.58;1.05;;;7.90;99.90;;;;;;4997872;28;20072;-67
2022/06/07 13:13:49;;;;;;;1.17;1.00;;;8.00;99.90;;;;;;4995594;28;20717;-67
2022/06/07 13:16:39;;;;;;;2.13;1.05;;;8.10;99.90;;;;;;5000048;28;20065;-66
2022/06/07 13:19:28;;;;;;;2.67;1.10;;;8.10;99.90;;;;;;4997425;28;20077;-71
2022/06/07 13:22:03;;;;;;;2.05;0.90;;;8.10;99.90;;;;;;4999364;28;20030;-67
2022/06/07 13:24:53;;;;;;;1.13;0.73;;;7.90;99.90;;;;;;4999063;28;20399;-66
2022/06/07 13:27:50;;;;;;;0.60;0.55;;;7.90;99.90;;;;;;4997413;28;20030;-64
2022/06/07 13:30:24;;;;;;;0.77;0.57;;;8.10;99.90;;;;;;4994969;28;20057;-67
2022/06/07 13:33:07;;;;;;;0.75;0.47;;;8.20;99.90;;;;;;4994643;28;20080;-65
2022/06/07 13:35:55;;;;;;;0.63;0.50;;;8.20;99.90;;;;;;4997757;28;20045;-64
2022/06/07 13:38:30;;;;;;;1.13;0.63;;;8.30;99.90;;;;;;4994498;28;20022;-64
2022/06/07 13:41:23;;;;;;;1.15;0.50;;;8.40;99.90;;;;;;4994523;28;20030;-66
2022/06/07 13:44:04;;;;;;;0.93;0.68;;;8.40;99.90;;;;;;4957445;28;20543;-63